sensor_id;sensor_type;location;lat;lon;timestamp;temperature;humidity
8910;DHT22;4490;49.072;8.804;2022-12-29T00:01:44;11.70;88.70
8910;DHT22;4490;49.072;8.804;2022-12-29T00:04:12;11.80;88.60
8910;DHT22;4490;49.072;8.804;2022-12-29T00:06:39;12.00;88.20
8910;DHT22;4490;49.072;8.804;2022-12-29T00:09:04;12.20;87.30
8910;DHT22;4490;49.072;8.804;2022-12-29T00:11:30;12.30;86.20
8910;DHT22;4490;49.072;8.804;2022-12-29T00:13:55;12.50;85.60
8910;DHT22;4490;49.072;8.804;2022-12-29T00:16:44;12.70;84.90
8910;DHT22;4490;49.072;8.804;2022-12-29T00:19:11;12.90;84.20
8910;DHT22;4490;49.072;8.804;2022-12-29T00:22:13;13.00;84.00
8910;DHT22;4490;49.072;8.804;2022-12-29T00:24:58;13.10;83.40
8910;DHT22;4490;49.072;8.804;2022-12-29T00:27:28;13.20;82.80
8910;DHT22;4490;49.072;8.804;2022-12-29T00:30:16;13.20;82.50
8910;DHT22;4490;49.072;8.804;2022-12-29T00:33:00;13.30;82.20
8910;DHT22;4490;49.072;8.804;2022-12-29T00:35:51;13.40;82.60
8910;DHT22;4490;49.072;8.804;2022-12-29T00:38:18;13.40;82.70
8910;DHT22;4490;49.072;8.804;2022-12-29T00:41:02;13.40;82.50
8910;DHT22;4490;49.072;8.804;2022-12-29T00:43:46;13.40;83.10
8910;DHT22;4490;49.072;8.804;2022-12-29T00:46:33;13.30;83.30
8910;DHT22;4490;49.072;8.804;2022-12-29T00:49:00;13.30;83.00
8910;DHT22;4490;49.072;8.804;2022-12-29T00:51:45;13.20;82.90
8910;DHT22;4490;49.072;8.804;2022-12-29T00:54:11;13.20;82.40
8910;DHT22;4490;49.072;8.804;2022-12-29T00:56:36;13.10;82.40
8910;DHT22;4490;49.072;8.804;2022-12-29T00:59:03;13.10;82.00
8910;DHT22;4490;49.072;8.804;2022-12-29T01:01:29;13.00;82.10
8910;DHT22;4490;49.072;8.804;2022-12-29T01:03:55;13.00;82.10
8910;DHT22;4490;49.072;8.804;2022-12-29T01:06:20;13.00;82.60
8910;DHT22;4490;49.072;8.804;2022-12-29T01:08:46;13.00;82.80
8910;DHT22;4490;49.072;8.804;2022-12-29T01:11:12;13.10;83.40
8910;DHT22;4490;49.072;8.804;2022-12-29T01:13:39;13.10;84.00
8910;DHT22;4490;49.072;8.804;2022-12-29T01:16:06;13.10;85.60
8910;DHT22;4490;49.072;8.804;2022-12-29T01:18:32;13.10;86.00
8910;DHT22;4490;49.072;8.804;2022-12-29T01:21:03;13.10;87.60
8910;DHT22;4490;49.072;8.804;2022-12-29T01:23:29;13.10;87.80
8910;DHT22;4490;49.072;8.804;2022-12-29T01:25:55;13.00;88.70
8910;DHT22;4490;49.072;8.804;2022-12-29T01:28:21;13.00;89.60
8910;DHT22;4490;49.072;8.804;2022-12-29T01:30:47;12.90;90.30
8910;DHT22;4490;49.072;8.804;2022-12-29T01:33:13;12.80;90.90
8910;DHT22;4490;49.072;8.804;2022-12-29T01:35:38;12.70;91.50
8910;DHT22;4490;49.072;8.804;2022-12-29T01:38:04;12.60;92.10
8910;DHT22;4490;49.072;8.804;2022-12-29T01:40:30;12.50;93.00
8910;DHT22;4490;49.072;8.804;2022-12-29T01:42:55;12.50;93.50
8910;DHT22;4490;49.072;8.804;2022-12-29T01:45:21;12.40;93.80
8910;DHT22;4490;49.072;8.804;2022-12-29T01:50:37;12.30;93.40
8910;DHT22;4490;49.072;8.804;2022-12-29T01:55:53;12.30;93.50
8910;DHT22;4490;49.072;8.804;2022-12-29T01:58:22;12.40;93.40
8910;DHT22;4490;49.072;8.804;2022-12-29T02:00:48;12.40;93.50
8910;DHT22;4490;49.072;8.804;2022-12-29T02:03:14;12.40;93.40
8910;DHT22;4490;49.072;8.804;2022-12-29T02:05:59;12.40;93.40
8910;DHT22;4490;49.072;8.804;2022-12-29T02:08:29;12.40;93.40
8910;DHT22;4490;49.072;8.804;2022-12-29T02:10:59;12.40;93.50
8910;DHT22;4490;49.072;8.804;2022-12-29T02:13:26;12.40;93.40
8910;DHT22;4490;49.072;8.804;2022-12-29T02:29:54;12.40;91.80
8910;DHT22;4490;49.072;8.804;2022-12-29T02:35:01;12.50;91.20
8910;DHT22;4490;49.072;8.804;2022-12-29T02:37:58;12.60;91.10
8910;DHT22;4490;49.072;8.804;2022-12-29T02:40:31;12.60;90.80
8910;DHT22;4490;49.072;8.804;2022-12-29T02:43:26;12.60;90.60
8910;DHT22;4490;49.072;8.804;2022-12-29T02:45:59;12.70;90.40
8910;DHT22;4490;49.072;8.804;2022-12-29T02:48:46;12.70;90.30
8910;DHT22;4490;49.072;8.804;2022-12-29T02:51:27;12.70;90.10
8910;DHT22;4490;49.072;8.804;2022-12-29T02:53:55;12.70;90.00
8910;DHT22;4490;49.072;8.804;2022-12-29T02:56:40;12.70;89.80
8910;DHT22;4490;49.072;8.804;2022-12-29T02:59:06;12.80;89.90
8910;DHT22;4490;49.072;8.804;2022-12-29T03:15:57;12.70;89.10
8910;DHT22;4490;49.072;8.804;2022-12-29T03:23:32;12.80;88.80
8910;DHT22;4490;49.072;8.804;2022-12-29T03:26:03;12.80;88.40
8910;DHT22;4490;49.072;8.804;2022-12-29T03:29:13;12.80;88.30
8910;DHT22;4490;49.072;8.804;2022-12-29T03:31:32;12.90;88.10
8910;DHT22;4490;49.072;8.804;2022-12-29T03:33:58;12.90;87.90
8910;DHT22;4490;49.072;8.804;2022-12-29T03:36:39;12.90;87.50
8910;DHT22;4490;49.072;8.804;2022-12-29T03:39:09;12.90;87.00
8910;DHT22;4490;49.072;8.804;2022-12-29T03:41:38;12.90;87.00
8910;DHT22;4490;49.072;8.804;2022-12-29T03:44:06;13.00;87.30
8910;DHT22;4490;49.072;8.804;2022-12-29T03:46:32;13.00;87.10
8910;DHT22;4490;49.072;8.804;2022-12-29T03:48:57;13.00;87.10
8910;DHT22;4490;49.072;8.804;2022-12-29T03:51:23;13.00;87.10
8910;DHT22;4490;49.072;8.804;2022-12-29T03:53:49;13.00;88.00
8910;DHT22;4490;49.072;8.804;2022-12-29T03:56:14;13.00;87.30
8910;DHT22;4490;49.072;8.804;2022-12-29T03:58:40;13.00;87.40
8910;DHT22;4490;49.072;8.804;2022-12-29T04:01:06;13.00;87.40
8910;DHT22;4490;49.072;8.804;2022-12-29T04:03:31;13.00;87.30
8910;DHT22;4490;49.072;8.804;2022-12-29T04:05:57;13.00;87.10
8910;DHT22;4490;49.072;8.804;2022-12-29T04:08:22;13.00;87.10
8910;DHT22;4490;49.072;8.804;2022-12-29T04:10:49;13.00;87.10
8910;DHT22;4490;49.072;8.804;2022-12-29T04:13:15;13.00;86.80
8910;DHT22;4490;49.072;8.804;2022-12-29T04:15:42;13.00;86.90
8910;DHT22;4490;49.072;8.804;2022-12-29T04:18:07;13.00;86.20
8910;DHT22;4490;49.072;8.804;2022-12-29T04:20:33;13.00;86.20
8910;DHT22;4490;49.072;8.804;2022-12-29T04:23:36;13.00;86.20
8910;DHT22;4490;49.072;8.804;2022-12-29T04:26:02;12.90;85.80
8910;DHT22;4490;49.072;8.804;2022-12-29T04:28:28;12.90;85.80
8910;DHT22;4490;49.072;8.804;2022-12-29T04:30:54;12.90;85.90
8910;DHT22;4490;49.072;8.804;2022-12-29T04:33:20;13.00;85.60
8910;DHT22;4490;49.072;8.804;2022-12-29T04:35:46;13.00;85.40
8910;DHT22;4490;49.072;8.804;2022-12-29T04:38:12;13.00;85.30
8910;DHT22;4490;49.072;8.804;2022-12-29T04:40:39;13.00;85.80
8910;DHT22;4490;49.072;8.804;2022-12-29T04:43:06;13.00;85.00
8910;DHT22;4490;49.072;8.804;2022-12-29T04:45:31;13.10;85.00
8910;DHT22;4490;49.072;8.804;2022-12-29T04:47:57;13.10;85.00
8910;DHT22;4490;49.072;8.804;2022-12-29T04:50:22;13.10;84.70
8910;DHT22;4490;49.072;8.804;2022-12-29T04:52:48;13.10;84.80
8910;DHT22;4490;49.072;8.804;2022-12-29T04:55:14;13.10;84.50
8910;DHT22;4490;49.072;8.804;2022-12-29T04:57:39;13.10;84.40
8910;DHT22;4490;49.072;8.804;2022-12-29T05:00:06;13.10;84.50
8910;DHT22;4490;49.072;8.804;2022-12-29T05:02:32;13.10;84.30
8910;DHT22;4490;49.072;8.804;2022-12-29T05:04:57;13.10;84.30
8910;DHT22;4490;49.072;8.804;2022-12-29T05:07:23;13.20;84.30
8910;DHT22;4490;49.072;8.804;2022-12-29T05:09:48;13.10;84.00
8910;DHT22;4490;49.072;8.804;2022-12-29T05:12:14;13.20;84.40
8910;DHT22;4490;49.072;8.804;2022-12-29T05:14:40;13.10;84.10
8910;DHT22;4490;49.072;8.804;2022-12-29T05:17:05;13.10;84.40
8910;DHT22;4490;49.072;8.804;2022-12-29T05:19:31;13.20;84.30
8910;DHT22;4490;49.072;8.804;2022-12-29T05:21:56;13.20;84.10
8910;DHT22;4490;49.072;8.804;2022-12-29T05:24:22;13.20;84.10
8910;DHT22;4490;49.072;8.804;2022-12-29T05:26:47;13.20;84.00
8910;DHT22;4490;49.072;8.804;2022-12-29T05:29:13;13.30;84.20
8910;DHT22;4490;49.072;8.804;2022-12-29T05:31:39;13.30;84.20
8910;DHT22;4490;49.072;8.804;2022-12-29T05:34:04;13.30;84.30
8910;DHT22;4490;49.072;8.804;2022-12-29T05:36:30;13.30;84.30
8910;DHT22;4490;49.072;8.804;2022-12-29T05:38:56;13.30;84.40
8910;DHT22;4490;49.072;8.804;2022-12-29T05:41:21;13.30;84.50
8910;DHT22;4490;49.072;8.804;2022-12-29T05:43:47;13.30;84.50
8910;DHT22;4490;49.072;8.804;2022-12-29T05:46:13;13.30;84.30
8910;DHT22;4490;49.072;8.804;2022-12-29T05:48:38;13.30;84.40
8910;DHT22;4490;49.072;8.804;2022-12-29T05:51:04;13.30;84.40
8910;DHT22;4490;49.072;8.804;2022-12-29T05:53:30;13.40;84.60
8910;DHT22;4490;49.072;8.804;2022-12-29T05:55:55;13.40;84.70
8910;DHT22;4490;49.072;8.804;2022-12-29T05:58:21;13.40;84.50
8910;DHT22;4490;49.072;8.804;2022-12-29T06:00:46;13.40;84.30
8910;DHT22;4490;49.072;8.804;2022-12-29T06:03:12;13.40;84.00
8910;DHT22;4490;49.072;8.804;2022-12-29T06:05:38;13.40;84.20
8910;DHT22;4490;49.072;8.804;2022-12-29T06:08:03;13.50;84.30
8910;DHT22;4490;49.072;8.804;2022-12-29T06:10:29;13.50;84.10
8910;DHT22;4490;49.072;8.804;2022-12-29T06:12:55;13.50;84.30
8910;DHT22;4490;49.072;8.804;2022-12-29T06:15:21;13.50;84.00
8910;DHT22;4490;49.072;8.804;2022-12-29T06:17:47;13.50;83.90
8910;DHT22;4490;49.072;8.804;2022-12-29T06:20:13;13.50;84.00
8910;DHT22;4490;49.072;8.804;2022-12-29T06:22:38;13.50;84.10
8910;DHT22;4490;49.072;8.804;2022-12-29T06:25:04;13.50;84.10
8910;DHT22;4490;49.072;8.804;2022-12-29T06:27:31;13.50;83.90
8910;DHT22;4490;49.072;8.804;2022-12-29T06:29:56;13.50;83.60
8910;DHT22;4490;49.072;8.804;2022-12-29T06:32:22;13.50;83.40
8910;DHT22;4490;49.072;8.804;2022-12-29T06:34:48;13.50;83.40
8910;DHT22;4490;49.072;8.804;2022-12-29T06:37:14;13.60;83.60
8910;DHT22;4490;49.072;8.804;2022-12-29T06:39:40;13.60;83.40
8910;DHT22;4490;49.072;8.804;2022-12-29T06:42:06;13.60;83.20
8910;DHT22;4490;49.072;8.804;2022-12-29T06:44:31;13.60;83.30
8910;DHT22;4490;49.072;8.804;2022-12-29T06:46:57;13.60;83.10
8910;DHT22;4490;49.072;8.804;2022-12-29T06:49:23;13.60;82.90
8910;DHT22;4490;49.072;8.804;2022-12-29T06:51:48;13.60;82.80
8910;DHT22;4490;49.072;8.804;2022-12-29T06:54:14;13.60;82.80
8910;DHT22;4490;49.072;8.804;2022-12-29T06:56:39;13.60;82.80
8910;DHT22;4490;49.072;8.804;2022-12-29T06:59:05;13.70;82.30
8910;DHT22;4490;49.072;8.804;2022-12-29T07:01:31;13.60;81.90
8910;DHT22;4490;49.072;8.804;2022-12-29T07:03:56;13.70;81.90
8910;DHT22;4490;49.072;8.804;2022-12-29T07:06:23;13.70;81.70
8910;DHT22;4490;49.072;8.804;2022-12-29T07:08:51;13.70;81.50
8910;DHT22;4490;49.072;8.804;2022-12-29T07:11:20;13.70;81.40
8910;DHT22;4490;49.072;8.804;2022-12-29T07:13:46;13.70;81.30
8910;DHT22;4490;49.072;8.804;2022-12-29T07:16:12;13.70;81.20
8910;DHT22;4490;49.072;8.804;2022-12-29T07:18:37;13.70;80.90
8910;DHT22;4490;49.072;8.804;2022-12-29T07:21:03;13.70;80.90
8910;DHT22;4490;49.072;8.804;2022-12-29T07:23:29;13.70;80.80
8910;DHT22;4490;49.072;8.804;2022-12-29T07:26:02;13.80;80.80
8910;DHT22;4490;49.072;8.804;2022-12-29T07:28:28;13.80;80.50
8910;DHT22;4490;49.072;8.804;2022-12-29T07:30:54;13.80;80.30
8910;DHT22;4490;49.072;8.804;2022-12-29T07:33:19;13.80;79.80
8910;DHT22;4490;49.072;8.804;2022-12-29T07:35:45;13.80;79.50
8910;DHT22;4490;49.072;8.804;2022-12-29T07:38:11;13.90;79.50
8910;DHT22;4490;49.072;8.804;2022-12-29T07:40:37;13.90;79.50
8910;DHT22;4490;49.072;8.804;2022-12-29T07:43:03;13.90;79.20
8910;DHT22;4490;49.072;8.804;2022-12-29T07:45:29;13.90;79.40
8910;DHT22;4490;49.072;8.804;2022-12-29T07:47:55;14.00;78.80
8910;DHT22;4490;49.072;8.804;2022-12-29T07:50:21;14.00;78.80
8910;DHT22;4490;49.072;8.804;2022-12-29T07:52:46;13.90;78.50
8910;DHT22;4490;49.072;8.804;2022-12-29T07:55:16;14.00;78.30
8910;DHT22;4490;49.072;8.804;2022-12-29T07:57:42;14.00;78.20
8910;DHT22;4490;49.072;8.804;2022-12-29T08:00:08;14.00;78.00
8910;DHT22;4490;49.072;8.804;2022-12-29T08:02:35;14.10;78.70
8910;DHT22;4490;49.072;8.804;2022-12-29T08:05:01;14.10;77.50
8910;DHT22;4490;49.072;8.804;2022-12-29T08:07:27;14.10;77.70
8910;DHT22;4490;49.072;8.804;2022-12-29T08:09:52;14.10;77.00
8910;DHT22;4490;49.072;8.804;2022-12-29T08:12:18;14.10;77.20
8910;DHT22;4490;49.072;8.804;2022-12-29T08:14:44;14.20;77.20
8910;DHT22;4490;49.072;8.804;2022-12-29T08:17:09;14.20;77.20
8910;DHT22;4490;49.072;8.804;2022-12-29T08:19:36;14.20;76.60
8910;DHT22;4490;49.072;8.804;2022-12-29T08:22:02;14.20;76.60
8910;DHT22;4490;49.072;8.804;2022-12-29T08:24:27;14.20;76.60
8910;DHT22;4490;49.072;8.804;2022-12-29T08:26:53;14.20;76.60
8910;DHT22;4490;49.072;8.804;2022-12-29T08:29:18;14.20;76.40
8910;DHT22;4490;49.072;8.804;2022-12-29T08:31:45;14.20;76.40
8910;DHT22;4490;49.072;8.804;2022-12-29T08:34:10;14.30;76.40
8910;DHT22;4490;49.072;8.804;2022-12-29T08:36:36;14.20;76.10
8910;DHT22;4490;49.072;8.804;2022-12-29T08:39:02;14.30;76.30
8910;DHT22;4490;49.072;8.804;2022-12-29T08:41:27;14.30;76.40
8910;DHT22;4490;49.072;8.804;2022-12-29T08:43:53;14.30;76.20
8910;DHT22;4490;49.072;8.804;2022-12-29T08:46:19;14.30;75.70
8910;DHT22;4490;49.072;8.804;2022-12-29T08:48:44;14.30;75.70
8910;DHT22;4490;49.072;8.804;2022-12-29T08:51:10;14.40;75.60
8910;DHT22;4490;49.072;8.804;2022-12-29T08:53:36;14.40;75.70
8910;DHT22;4490;49.072;8.804;2022-12-29T08:56:02;14.40;75.80
8910;DHT22;4490;49.072;8.804;2022-12-29T08:58:29;14.40;75.60
8910;DHT22;4490;49.072;8.804;2022-12-29T09:00:55;14.40;75.70
8910;DHT22;4490;49.072;8.804;2022-12-29T09:03:22;14.50;75.70
8910;DHT22;4490;49.072;8.804;2022-12-29T09:05:51;14.40;75.20
8910;DHT22;4490;49.072;8.804;2022-12-29T09:08:17;14.50;75.50
8910;DHT22;4490;49.072;8.804;2022-12-29T09:10:43;14.50;75.70
8910;DHT22;4490;49.072;8.804;2022-12-29T09:13:10;14.50;76.10
8910;DHT22;4490;49.072;8.804;2022-12-29T09:15:35;14.40;76.00
8910;DHT22;4490;49.072;8.804;2022-12-29T09:18:01;14.40;76.10
8910;DHT22;4490;49.072;8.804;2022-12-29T09:20:27;14.40;76.30
8910;DHT22;4490;49.072;8.804;2022-12-29T09:22:52;14.40;76.40
8910;DHT22;4490;49.072;8.804;2022-12-29T09:25:19;14.40;76.30
8910;DHT22;4490;49.072;8.804;2022-12-29T09:27:45;14.40;76.60
8910;DHT22;4490;49.072;8.804;2022-12-29T09:30:13;14.30;76.60
8910;DHT22;4490;49.072;8.804;2022-12-29T09:32:39;14.30;77.50
8910;DHT22;4490;49.072;8.804;2022-12-29T09:35:05;14.30;76.70
8910;DHT22;4490;49.072;8.804;2022-12-29T09:37:31;14.30;77.10
8910;DHT22;4490;49.072;8.804;2022-12-29T09:39:57;14.30;77.30
8910;DHT22;4490;49.072;8.804;2022-12-29T09:42:45;14.30;77.70
8910;DHT22;4490;49.072;8.804;2022-12-29T09:47:42;14.30;78.10
8910;DHT22;4490;49.072;8.804;2022-12-29T09:50:30;14.20;78.20
8910;DHT22;4490;49.072;8.804;2022-12-29T09:55:50;14.20;78.40
8910;DHT22;4490;49.072;8.804;2022-12-29T10:09:02;14.30;78.70
8910;DHT22;4490;49.072;8.804;2022-12-29T10:12:29;14.40;78.70
8910;DHT22;4490;49.072;8.804;2022-12-29T10:17:55;14.50;79.10
8910;DHT22;4490;49.072;8.804;2022-12-29T10:22:55;14.70;79.30
8910;DHT22;4490;49.072;8.804;2022-12-29T10:25:25;14.70;79.50
8910;DHT22;4490;49.072;8.804;2022-12-29T10:27:54;14.80;79.10
8910;DHT22;4490;49.072;8.804;2022-12-29T10:30:21;14.80;79.00
8910;DHT22;4490;49.072;8.804;2022-12-29T10:32:58;14.90;79.20
8910;DHT22;4490;49.072;8.804;2022-12-29T10:35:30;14.80;78.60
8910;DHT22;4490;49.072;8.804;2022-12-29T10:40:36;14.80;79.10
8910;DHT22;4490;49.072;8.804;2022-12-29T10:46:17;14.70;79.10
8910;DHT22;4490;49.072;8.804;2022-12-29T10:48:44;14.70;79.50
8910;DHT22;4490;49.072;8.804;2022-12-29T10:51:21;14.60;80.60
8910;DHT22;4490;49.072;8.804;2022-12-29T10:53:58;14.60;79.80
8910;DHT22;4490;49.072;8.804;2022-12-29T10:56:34;14.60;80.50
8910;DHT22;4490;49.072;8.804;2022-12-29T10:59:13;14.70;80.60
8910;DHT22;4490;49.072;8.804;2022-12-29T11:04:43;14.90;79.70
8910;DHT22;4490;49.072;8.804;2022-12-29T11:07:11;15.00;79.60
8910;DHT22;4490;49.072;8.804;2022-12-29T11:09:38;14.90;79.10
8910;DHT22;4490;49.072;8.804;2022-12-29T11:12:28;14.90;79.30
8910;DHT22;4490;49.072;8.804;2022-12-29T11:15:15;14.80;79.70
8910;DHT22;4490;49.072;8.804;2022-12-29T11:17:51;14.80;79.10
8910;DHT22;4490;49.072;8.804;2022-12-29T11:20:35;14.70;79.50
8910;DHT22;4490;49.072;8.804;2022-12-29T11:23:04;14.70;79.40
8910;DHT22;4490;49.072;8.804;2022-12-29T11:25:30;14.60;79.40
8910;DHT22;4490;49.072;8.804;2022-12-29T11:28:02;14.60;79.40
8910;DHT22;4490;49.072;8.804;2022-12-29T11:30:30;14.60;79.60
8910;DHT22;4490;49.072;8.804;2022-12-29T11:32:57;14.50;79.50
8910;DHT22;4490;49.072;8.804;2022-12-29T11:35:49;14.50;79.40
8910;DHT22;4490;49.072;8.804;2022-12-29T11:38:23;14.50;79.50
8910;DHT22;4490;49.072;8.804;2022-12-29T11:40:50;14.50;79.90
8910;DHT22;4490;49.072;8.804;2022-12-29T11:43:46;14.50;80.20
8910;DHT22;4490;49.072;8.804;2022-12-29T11:46:20;14.50;80.20
8910;DHT22;4490;49.072;8.804;2022-12-29T11:48:47;14.50;80.30
8910;DHT22;4490;49.072;8.804;2022-12-29T11:54:31;14.50;80.00
8910;DHT22;4490;49.072;8.804;2022-12-29T11:57:16;14.50;80.20
8910;DHT22;4490;49.072;8.804;2022-12-29T11:59:50;14.50;80.60
8910;DHT22;4490;49.072;8.804;2022-12-29T12:02:42;14.50;80.50
8910;DHT22;4490;49.072;8.804;2022-12-29T12:08:09;14.50;80.30
8910;DHT22;4490;49.072;8.804;2022-12-29T12:10:44;14.50;80.00
8910;DHT22;4490;49.072;8.804;2022-12-29T12:13:20;14.50;80.00
8910;DHT22;4490;49.072;8.804;2022-12-29T12:18:51;14.50;80.80
8910;DHT22;4490;49.072;8.804;2022-12-29T12:21:41;14.60;80.00
8910;DHT22;4490;49.072;8.804;2022-12-29T12:35:14;14.70;78.50
8910;DHT22;4490;49.072;8.804;2022-12-29T13:24:28;14.20;82.00
8910;DHT22;4490;49.072;8.804;2022-12-29T13:30:22;14.30;82.20
8910;DHT22;4490;49.072;8.804;2022-12-29T13:38:11;14.30;82.70
8910;DHT22;4490;49.072;8.804;2022-12-29T13:40:45;14.20;82.60
8910;DHT22;4490;49.072;8.804;2022-12-29T13:43:13;14.20;83.00
8910;DHT22;4490;49.072;8.804;2022-12-29T13:45:42;14.20;83.40
8910;DHT22;4490;49.072;8.804;2022-12-29T13:48:18;14.10;84.10
8910;DHT22;4490;49.072;8.804;2022-12-29T13:50:54;14.10;84.50
8910;DHT22;4490;49.072;8.804;2022-12-29T13:56:02;13.90;85.00
8910;DHT22;4490;49.072;8.804;2022-12-29T13:58:31;13.80;85.50
8910;DHT22;4490;49.072;8.804;2022-12-29T14:04:08;13.70;89.00
8910;DHT22;4490;49.072;8.804;2022-12-29T14:06:35;13.60;89.20
8910;DHT22;4490;49.072;8.804;2022-12-29T14:09:38;13.50;90.00
8910;DHT22;4490;49.072;8.804;2022-12-29T14:11:53;13.40;90.60
8910;DHT22;4490;49.072;8.804;2022-12-29T14:14:28;13.30;90.90
8910;DHT22;4490;49.072;8.804;2022-12-29T14:16:54;13.20;91.40
8910;DHT22;4490;49.072;8.804;2022-12-29T14:19:32;13.20;92.00
8910;DHT22;4490;49.072;8.804;2022-12-29T14:22:01;13.10;93.30
8910;DHT22;4490;49.072;8.804;2022-12-29T14:34:50;12.60;99.90
8910;DHT22;4490;49.072;8.804;2022-12-29T14:37:32;12.50;99.90
8910;DHT22;4490;49.072;8.804;2022-12-29T14:42:46;12.40;99.90
8910;DHT22;4490;49.072;8.804;2022-12-29T14:47:46;12.20;99.90
8910;DHT22;4490;49.072;8.804;2022-12-29T14:52:50;12.10;99.90
8910;DHT22;4490;49.072;8.804;2022-12-29T14:57:47;11.90;99.90
8910;DHT22;4490;49.072;8.804;2022-12-29T15:02:42;11.70;99.90
8910;DHT22;4490;49.072;8.804;2022-12-29T15:05:43;11.60;99.90
8910;DHT22;4490;49.072;8.804;2022-12-29T15:08:11;11.50;99.90
8910;DHT22;4490;49.072;8.804;2022-12-29T15:10:50;11.40;99.90
8910;DHT22;4490;49.072;8.804;2022-12-29T15:13:24;11.30;99.90
8910;DHT22;4490;49.072;8.804;2022-12-29T15:15:51;11.30;99.90
8910;DHT22;4490;49.072;8.804;2022-12-29T15:18:25;11.20;99.90
8910;DHT22;4490;49.072;8.804;2022-12-29T15:20:54;11.20;99.90
8910;DHT22;4490;49.072;8.804;2022-12-29T15:23:21;11.10;99.90
8910;DHT22;4490;49.072;8.804;2022-12-29T15:26:04;11.10;99.90
8910;DHT22;4490;49.072;8.804;2022-12-29T15:28:41;11.10;99.90
8910;DHT22;4490;49.072;8.804;2022-12-29T15:31:13;11.10;99.90
8910;DHT22;4490;49.072;8.804;2022-12-29T15:33:41;11.00;99.90
8910;DHT22;4490;49.072;8.804;2022-12-29T15:36:12;11.00;99.90
8910;DHT22;4490;49.072;8.804;2022-12-29T15:38:38;11.00;99.90
8910;DHT22;4490;49.072;8.804;2022-12-29T15:46:31;11.00;99.90
8910;DHT22;4490;49.072;8.804;2022-12-29T15:48:57;11.00;99.90
8910;DHT22;4490;49.072;8.804;2022-12-29T15:51:33;11.00;99.90
8910;DHT22;4490;49.072;8.804;2022-12-29T15:53:59;11.00;99.90
8910;DHT22;4490;49.072;8.804;2022-12-29T15:56:28;11.00;99.90
8910;DHT22;4490;49.072;8.804;2022-12-29T15:58:54;11.10;99.90
8910;DHT22;4490;49.072;8.804;2022-12-29T16:01:32;11.10;99.90
8910;DHT22;4490;49.072;8.804;2022-12-29T16:03:59;11.10;99.90
8910;DHT22;4490;49.072;8.804;2022-12-29T16:06:34;11.10;99.90
8910;DHT22;4490;49.072;8.804;2022-12-29T16:09:06;11.10;99.90
8910;DHT22;4490;49.072;8.804;2022-12-29T16:11:38;11.10;99.90
8910;DHT22;4490;49.072;8.804;2022-12-29T16:14:20;11.10;99.90
8910;DHT22;4490;49.072;8.804;2022-12-29T16:16:48;11.10;99.90
8910;DHT22;4490;49.072;8.804;2022-12-29T16:19:19;11.10;99.90
8910;DHT22;4490;49.072;8.804;2022-12-29T16:21:47;11.10;99.90
8910;DHT22;4490;49.072;8.804;2022-12-29T16:24:16;11.10;99.90
8910;DHT22;4490;49.072;8.804;2022-12-29T16:27:16;11.10;99.90
8910;DHT22;4490;49.072;8.804;2022-12-29T16:29:37;11.10;99.90
8910;DHT22;4490;49.072;8.804;2022-12-29T16:32:27;11.10;99.90
8910;DHT22;4490;49.072;8.804;2022-12-29T16:35:10;11.10;99.90
8910;DHT22;4490;49.072;8.804;2022-12-29T16:37:36;11.10;99.90
8910;DHT22;4490;49.072;8.804;2022-12-29T16:42:48;11.00;99.90
8910;DHT22;4490;49.072;8.804;2022-12-29T16:50:44;11.10;99.90
8910;DHT22;4490;49.072;8.804;2022-12-29T16:53:40;11.10;99.90
8910;DHT22;4490;49.072;8.804;2022-12-29T16:56:16;11.10;99.90
8910;DHT22;4490;49.072;8.804;2022-12-29T16:58:47;11.10;99.90
8910;DHT22;4490;49.072;8.804;2022-12-29T17:01:13;11.10;99.90
8910;DHT22;4490;49.072;8.804;2022-12-29T17:03:57;11.00;99.90
8910;DHT22;4490;49.072;8.804;2022-12-29T17:06:23;11.00;99.90
8910;DHT22;4490;49.072;8.804;2022-12-29T17:08:50;11.00;99.90
8910;DHT22;4490;49.072;8.804;2022-12-29T17:14:16;11.00;99.90
8910;DHT22;4490;49.072;8.804;2022-12-29T17:16:43;11.00;99.90
8910;DHT22;4490;49.072;8.804;2022-12-29T17:19:20;10.90;99.90
8910;DHT22;4490;49.072;8.804;2022-12-29T17:21:46;10.90;99.90
8910;DHT22;4490;49.072;8.804;2022-12-29T17:24:19;11.00;99.90
8910;DHT22;4490;49.072;8.804;2022-12-29T17:26:49;11.00;99.90
8910;DHT22;4490;49.072;8.804;2022-12-29T17:31:56;11.00;99.90
8910;DHT22;4490;49.072;8.804;2022-12-29T17:34:21;10.90;99.90
8910;DHT22;4490;49.072;8.804;2022-12-29T17:36:48;10.90;99.90
8910;DHT22;4490;49.072;8.804;2022-12-29T17:39:13;10.90;99.90
8910;DHT22;4490;49.072;8.804;2022-12-29T17:41:39;10.90;99.90
8910;DHT22;4490;49.072;8.804;2022-12-29T17:44:05;10.80;99.90
8910;DHT22;4490;49.072;8.804;2022-12-29T17:46:32;10.80;99.90
8910;DHT22;4490;49.072;8.804;2022-12-29T17:48:58;10.80;99.90
8910;DHT22;4490;49.072;8.804;2022-12-29T17:51:24;10.70;99.90
8910;DHT22;4490;49.072;8.804;2022-12-29T17:53:50;10.70;99.90
8910;DHT22;4490;49.072;8.804;2022-12-29T17:56:17;10.60;99.90
8910;DHT22;4490;49.072;8.804;2022-12-29T17:58:49;10.60;99.90
8910;DHT22;4490;49.072;8.804;2022-12-29T18:01:17;10.50;99.90
8910;DHT22;4490;49.072;8.804;2022-12-29T18:03:46;10.50;99.90
8910;DHT22;4490;49.072;8.804;2022-12-29T18:06:12;10.50;99.90
8910;DHT22;4490;49.072;8.804;2022-12-29T18:08:39;10.50;99.90
8910;DHT22;4490;49.072;8.804;2022-12-29T18:11:25;10.40;99.90
8910;DHT22;4490;49.072;8.804;2022-12-29T18:13:54;10.40;99.90
8910;DHT22;4490;49.072;8.804;2022-12-29T18:16:21;10.40;99.90
8910;DHT22;4490;49.072;8.804;2022-12-29T18:18:46;10.40;99.90
8910;DHT22;4490;49.072;8.804;2022-12-29T18:21:22;10.40;99.90
8910;DHT22;4490;49.072;8.804;2022-12-29T18:23:49;10.40;99.90
8910;DHT22;4490;49.072;8.804;2022-12-29T18:28:48;10.40;99.90
8910;DHT22;4490;49.072;8.804;2022-12-29T18:31:29;10.30;99.90
8910;DHT22;4490;49.072;8.804;2022-12-29T18:33:57;10.30;99.90
8910;DHT22;4490;49.072;8.804;2022-12-29T18:36:23;10.30;99.90
8910;DHT22;4490;49.072;8.804;2022-12-29T18:38:50;10.30;99.90
8910;DHT22;4490;49.072;8.804;2022-12-29T18:41:20;10.30;99.90
8910;DHT22;4490;49.072;8.804;2022-12-29T18:43:47;10.30;99.90
8910;DHT22;4490;49.072;8.804;2022-12-29T18:46:13;10.30;99.90
8910;DHT22;4490;49.072;8.804;2022-12-29T18:48:39;10.30;99.90
8910;DHT22;4490;49.072;8.804;2022-12-29T18:51:08;10.30;99.90
8910;DHT22;4490;49.072;8.804;2022-12-29T18:53:38;10.30;99.90
8910;DHT22;4490;49.072;8.804;2022-12-29T18:56:04;10.30;99.90
8910;DHT22;4490;49.072;8.804;2022-12-29T18:58:31;10.30;99.90
8910;DHT22;4490;49.072;8.804;2022-12-29T19:00:57;10.30;99.90
8910;DHT22;4490;49.072;8.804;2022-12-29T19:03:23;10.30;99.90
8910;DHT22;4490;49.072;8.804;2022-12-29T19:05:49;10.20;99.90
8910;DHT22;4490;49.072;8.804;2022-12-29T19:08:15;10.20;99.90
8910;DHT22;4490;49.072;8.804;2022-12-29T19:10:41;10.20;99.90
8910;DHT22;4490;49.072;8.804;2022-12-29T19:13:14;10.20;99.90
8910;DHT22;4490;49.072;8.804;2022-12-29T19:15:40;10.20;99.90
8910;DHT22;4490;49.072;8.804;2022-12-29T19:18:07;10.10;99.90
8910;DHT22;4490;49.072;8.804;2022-12-29T19:20:37;10.10;99.90
8910;DHT22;4490;49.072;8.804;2022-12-29T19:23:05;10.10;99.90
8910;DHT22;4490;49.072;8.804;2022-12-29T19:25:32;10.10;99.90
8910;DHT22;4490;49.072;8.804;2022-12-29T19:27:58;10.00;99.90
8910;DHT22;4490;49.072;8.804;2022-12-29T19:30:25;10.00;99.90
8910;DHT22;4490;49.072;8.804;2022-12-29T19:32:52;10.00;99.90
8910;DHT22;4490;49.072;8.804;2022-12-29T19:35:20;10.00;99.90
8910;DHT22;4490;49.072;8.804;2022-12-29T19:37:47;10.00;99.90